Weather at Elorza Airport

Public forecast

Using degrees Celsius for public forecast. Weather courtesy of forecast.io.

Closest aviation weather report (METAR) to Elorza Airport

Closest report is Santiago Perez Airport, 71.7 nm (132.8 km) W. Retrieved 2020/09/24 21:00 UTC (23 minutes ago):

SKUC 242100Z 21006KT 9999 FEW020 31/24 A2988

Closest aviation forecast (TAF) to Elorza Airport

Closest forecast is San Antonio Del Tachira Airport, 178.9 nm (331.3 km) WNW. Retrieved 2020/09/24 18:03 UTC (3 hours ago):

TAF TAF SVSA 241600Z 2418/2518 32004KT 9999 SCT016 TX34/2418Z TN21/2408Z BECMG 2418/2422 21005KT 9000 -DZ SCT016 BKN040